Terminal Aerodrome Forecast
Issued by NWS

Home | Current Version | Previous Version | Text Only | Print | Product List | Glossary On
Versions: 1 2 3 4 5 6 7 8 9 10 11 12
957
FTUS46 KPDT 202340
TAFYKM
TAF
KYKM 202340Z 2100/2124 13006KT P6SM SCT200 SCT250
     FM210600 28006KT P6SM BKN150
     FM211200 25006KT P6SM SCT050 BKN070
     FM211900 27010G20KT P6SM FEW050 FEW300=

USA.gov is the U.S. government's official web portal to all federal, state and local government web resources and services.